sensor_id;sensor_type;location;lat;lon;timestamp;pressure;altitude;pressure_sealevel;temperature;humidity
56568;BME280;42456;49.956;20.004;2023-11-21T00:00:35;97494.73;;;7.79;100.00
56568;BME280;42456;49.956;20.004;2023-11-21T00:03:02;97493.30;;;7.77;100.00
56568;BME280;42456;49.956;20.004;2023-11-21T00:05:31;97492.80;;;7.76;100.00
56568;BME280;42456;49.956;20.004;2023-11-21T00:07:58;97490.73;;;7.76;100.00
56568;BME280;42456;49.956;20.004;2023-11-21T00:10:25;97494.20;;;7.74;100.00
56568;BME280;42456;49.956;20.004;2023-11-21T00:12:52;97499.88;;;7.73;100.00
56568;BME280;42456;49.956;20.004;2023-11-21T00:15:21;97499.99;;;7.72;100.00
56568;BME280;42456;49.956;20.004;2023-11-21T00:17:48;97497.69;;;7.69;100.00
56568;BME280;42456;49.956;20.004;2023-11-21T00:20:15;97500.79;;;7.68;100.00
56568;BME280;42456;49.956;20.004;2023-11-21T00:22:42;97502.05;;;7.67;100.00
56568;BME280;42456;49.956;20.004;2023-11-21T00:25:09;97502.67;;;7.67;100.00
56568;BME280;42456;49.956;20.004;2023-11-21T00:27:37;97507.03;;;7.67;100.00
56568;BME280;42456;49.956;20.004;2023-11-21T00:30:04;97507.85;;;7.66;100.00
56568;BME280;42456;49.956;20.004;2023-11-21T00:32:32;97512.61;;;7.67;100.00
56568;BME280;42456;49.956;20.004;2023-11-21T00:34:59;97516.21;;;7.67;100.00
56568;BME280;42456;49.956;20.004;2023-11-21T00:37:26;97513.89;;;7.68;100.00
56568;BME280;42456;49.956;20.004;2023-11-21T00:39:53;97513.56;;;7.68;100.00
56568;BME280;42456;49.956;20.004;2023-11-21T00:42:20;97519.56;;;7.69;100.00
56568;BME280;42456;49.956;20.004;2023-11-21T00:44:48;97519.00;;;7.70;100.00
56568;BME280;42456;49.956;20.004;2023-11-21T00:47:15;97517.25;;;7.71;100.00
56568;BME280;42456;49.956;20.004;2023-11-21T00:49:42;97513.75;;;7.71;100.00
56568;BME280;42456;49.956;20.004;2023-11-21T00:52:09;97509.84;;;7.71;100.00
56568;BME280;42456;49.956;20.004;2023-11-21T00:54:36;97505.21;;;7.72;100.00
56568;BME280;42456;49.956;20.004;2023-11-21T00:57:03;97502.58;;;7.73;100.00
56568;BME280;42456;49.956;20.004;2023-11-21T00:59:30;97503.91;;;7.74;100.00
56568;BME280;42456;49.956;20.004;2023-11-21T01:01:57;97500.92;;;7.74;100.00
56568;BME280;42456;49.956;20.004;2023-11-21T01:04:27;97501.48;;;7.74;100.00
56568;BME280;42456;49.956;20.004;2023-11-21T01:06:54;97498.17;;;7.74;100.00
56568;BME280;42456;49.956;20.004;2023-11-21T01:09:21;97499.33;;;7.74;100.00
56568;BME280;42456;49.956;20.004;2023-11-21T01:11:48;97505.16;;;7.75;100.00
56568;BME280;42456;49.956;20.004;2023-11-21T01:14:15;97509.06;;;7.75;100.00
56568;BME280;42456;49.956;20.004;2023-11-21T01:16:44;97511.05;;;7.75;100.00
56568;BME280;42456;49.956;20.004;2023-11-21T01:19:11;97514.85;;;7.74;100.00
56568;BME280;42456;49.956;20.004;2023-11-21T01:21:38;97518.70;;;7.75;100.00
56568;BME280;42456;49.956;20.004;2023-11-21T01:24:05;97518.13;;;7.74;100.00
56568;BME280;42456;49.956;20.004;2023-11-21T01:26:34;97516.65;;;7.75;100.00
56568;BME280;42456;49.956;20.004;2023-11-21T01:29:01;97514.80;;;7.75;100.00
56568;BME280;42456;49.956;20.004;2023-11-21T01:31:28;97511.58;;;7.75;100.00
56568;BME280;42456;49.956;20.004;2023-11-21T01:33:56;97514.16;;;7.74;100.00
56568;BME280;42456;49.956;20.004;2023-11-21T01:36:30;97513.04;;;7.75;100.00
56568;BME280;42456;49.956;20.004;2023-11-21T01:38:59;97514.79;;;7.75;100.00
56568;BME280;42456;49.956;20.004;2023-11-21T01:41:27;97509.75;;;7.75;100.00
56568;BME280;42456;49.956;20.004;2023-11-21T01:43:55;97508.14;;;7.75;100.00
56568;BME280;42456;49.956;20.004;2023-11-21T01:46:23;97515.04;;;7.75;100.00
56568;BME280;42456;49.956;20.004;2023-11-21T01:48:51;97512.00;;;7.76;100.00
56568;BME280;42456;49.956;20.004;2023-11-21T01:51:19;97514.23;;;7.77;100.00
56568;BME280;42456;49.956;20.004;2023-11-21T01:53:47;97515.34;;;7.77;100.00
56568;BME280;42456;49.956;20.004;2023-11-21T01:56:14;97507.62;;;7.78;100.00
56568;BME280;42456;49.956;20.004;2023-11-21T01:58:42;97501.27;;;7.77;100.00
56568;BME280;42456;49.956;20.004;2023-11-21T02:01:10;97502.56;;;7.77;100.00
56568;BME280;42456;49.956;20.004;2023-11-21T02:03:37;97500.34;;;7.77;100.00
56568;BME280;42456;49.956;20.004;2023-11-21T02:06:04;97501.66;;;7.76;100.00
56568;BME280;42456;49.956;20.004;2023-11-21T02:08:32;97503.11;;;7.75;100.00
56568;BME280;42456;49.956;20.004;2023-11-21T02:10:58;97506.77;;;7.75;100.00
56568;BME280;42456;49.956;20.004;2023-11-21T02:13:25;97513.85;;;7.74;100.00
56568;BME280;42456;49.956;20.004;2023-11-21T02:15:52;97514.18;;;7.73;100.00
56568;BME280;42456;49.956;20.004;2023-11-21T02:18:21;97513.53;;;7.72;100.00
56568;BME280;42456;49.956;20.004;2023-11-21T02:20:49;97508.69;;;7.71;100.00
56568;BME280;42456;49.956;20.004;2023-11-21T02:23:15;97508.11;;;7.69;100.00
56568;BME280;42456;49.956;20.004;2023-11-21T02:25:42;97509.45;;;7.68;100.00
56568;BME280;42456;49.956;20.004;2023-11-21T02:28:10;97508.52;;;7.68;100.00
56568;BME280;42456;49.956;20.004;2023-11-21T02:30:40;97512.56;;;7.68;100.00
56568;BME280;42456;49.956;20.004;2023-11-21T02:33:06;97512.70;;;7.67;100.00
56568;BME280;42456;49.956;20.004;2023-11-21T02:35:34;97513.45;;;7.67;100.00
56568;BME280;42456;49.956;20.004;2023-11-21T02:38:02;97517.55;;;7.66;100.00
56568;BME280;42456;49.956;20.004;2023-11-21T02:40:29;97513.56;;;7.65;100.00
56568;BME280;42456;49.956;20.004;2023-11-21T02:42:57;97512.41;;;7.66;100.00
56568;BME280;42456;49.956;20.004;2023-11-21T02:45:26;97508.14;;;7.66;100.00
56568;BME280;42456;49.956;20.004;2023-11-21T02:47:53;97510.57;;;7.65;100.00
56568;BME280;42456;49.956;20.004;2023-11-21T02:50:21;97513.25;;;7.65;100.00
56568;BME280;42456;49.956;20.004;2023-11-21T02:52:50;97511.67;;;7.64;100.00
56568;BME280;42456;49.956;20.004;2023-11-21T02:55:18;97512.40;;;7.64;100.00
56568;BME280;42456;49.956;20.004;2023-11-21T02:57:44;97517.48;;;7.62;100.00
56568;BME280;42456;49.956;20.004;2023-11-21T03:00:11;97520.88;;;7.61;100.00
56568;BME280;42456;49.956;20.004;2023-11-21T03:02:42;97523.89;;;7.62;100.00
56568;BME280;42456;49.956;20.004;2023-11-21T03:05:10;97527.02;;;7.62;100.00
56568;BME280;42456;49.956;20.004;2023-11-21T03:07:38;97528.73;;;7.62;100.00
56568;BME280;42456;49.956;20.004;2023-11-21T03:10:07;97530.84;;;7.61;100.00
56568;BME280;42456;49.956;20.004;2023-11-21T03:12:37;97536.02;;;7.61;100.00
56568;BME280;42456;49.956;20.004;2023-11-21T03:15:06;97537.27;;;7.60;100.00
56568;BME280;42456;49.956;20.004;2023-11-21T03:17:33;97539.98;;;7.59;100.00
56568;BME280;42456;49.956;20.004;2023-11-21T03:20:05;97537.89;;;7.58;100.00
56568;BME280;42456;49.956;20.004;2023-11-21T03:22:32;97541.33;;;7.58;100.00
56568;BME280;42456;49.956;20.004;2023-11-21T03:25:00;97540.25;;;7.58;100.00
56568;BME280;42456;49.956;20.004;2023-11-21T03:27:27;97537.77;;;7.57;100.00
56568;BME280;42456;49.956;20.004;2023-11-21T03:29:55;97540.27;;;7.56;100.00
56568;BME280;42456;49.956;20.004;2023-11-21T03:32:22;97539.45;;;7.55;100.00
56568;BME280;42456;49.956;20.004;2023-11-21T03:34:58;97538.36;;;7.54;100.00
56568;BME280;42456;49.956;20.004;2023-11-21T03:37:26;97540.16;;;7.53;100.00
56568;BME280;42456;49.956;20.004;2023-11-21T03:39:55;97546.33;;;7.53;100.00
56568;BME280;42456;49.956;20.004;2023-11-21T03:42:24;97552.85;;;7.53;100.00
56568;BME280;42456;49.956;20.004;2023-11-21T03:44:54;97553.16;;;7.53;100.00
56568;BME280;42456;49.956;20.004;2023-11-21T03:47:21;97549.86;;;7.53;100.00
56568;BME280;42456;49.956;20.004;2023-11-21T03:49:48;97553.04;;;7.52;100.00
56568;BME280;42456;49.956;20.004;2023-11-21T03:52:15;97556.33;;;7.52;100.00
56568;BME280;42456;49.956;20.004;2023-11-21T03:54:42;97551.46;;;7.51;100.00
56568;BME280;42456;49.956;20.004;2023-11-21T03:57:10;97554.37;;;7.51;100.00
56568;BME280;42456;49.956;20.004;2023-11-21T03:59:40;97553.65;;;7.50;100.00
56568;BME280;42456;49.956;20.004;2023-11-21T04:02:08;97553.51;;;7.50;100.00
56568;BME280;42456;49.956;20.004;2023-11-21T04:04:35;97550.86;;;7.49;100.00
56568;BME280;42456;49.956;20.004;2023-11-21T04:07:03;97545.23;;;7.48;100.00
56568;BME280;42456;49.956;20.004;2023-11-21T04:09:31;97543.55;;;7.46;99.90
56568;BME280;42456;49.956;20.004;2023-11-21T04:11:58;97547.11;;;7.45;99.96
56568;BME280;42456;49.956;20.004;2023-11-21T04:14:24;97548.83;;;7.44;99.75
56568;BME280;42456;49.956;20.004;2023-11-21T04:16:51;97548.33;;;7.43;99.77
56568;BME280;42456;49.956;20.004;2023-11-21T04:19:18;97546.16;;;7.42;99.86
56568;BME280;42456;49.956;20.004;2023-11-21T04:21:45;97547.92;;;7.42;99.70
56568;BME280;42456;49.956;20.004;2023-11-21T04:24:12;97553.05;;;7.42;99.79
56568;BME280;42456;49.956;20.004;2023-11-21T04:26:39;97549.88;;;7.41;99.77
56568;BME280;42456;49.956;20.004;2023-11-21T04:29:06;97546.97;;;7.42;99.64
56568;BME280;42456;49.956;20.004;2023-11-21T04:31:33;97551.67;;;7.40;99.69
56568;BME280;42456;49.956;20.004;2023-11-21T04:33:59;97546.78;;;7.40;99.63
56568;BME280;42456;49.956;20.004;2023-11-21T04:36:27;97552.26;;;7.39;99.69
56568;BME280;42456;49.956;20.004;2023-11-21T04:38:54;97555.65;;;7.38;99.61
56568;BME280;42456;49.956;20.004;2023-11-21T04:41:21;97558.15;;;7.38;99.39
56568;BME280;42456;49.956;20.004;2023-11-21T04:43:48;97560.85;;;7.38;99.49
56568;BME280;42456;49.956;20.004;2023-11-21T04:46:15;97563.98;;;7.39;99.59
56568;BME280;42456;49.956;20.004;2023-11-21T04:48:42;97565.52;;;7.39;99.27
56568;BME280;42456;49.956;20.004;2023-11-21T04:51:10;97565.80;;;7.38;99.31
56568;BME280;42456;49.956;20.004;2023-11-21T04:53:39;97569.41;;;7.37;99.35
56568;BME280;42456;49.956;20.004;2023-11-21T04:56:06;97570.47;;;7.36;99.46
56568;BME280;42456;49.956;20.004;2023-11-21T04:58:33;97573.65;;;7.35;99.30
56568;BME280;42456;49.956;20.004;2023-11-21T05:01:00;97571.85;;;7.35;99.47
56568;BME280;42456;49.956;20.004;2023-11-21T05:03:28;97570.82;;;7.34;99.55
56568;BME280;42456;49.956;20.004;2023-11-21T05:05:56;97573.61;;;7.32;99.46
56568;BME280;42456;49.956;20.004;2023-11-21T05:08:23;97571.69;;;7.30;99.33
56568;BME280;42456;49.956;20.004;2023-11-21T05:10:50;97574.04;;;7.29;99.45
56568;BME280;42456;49.956;20.004;2023-11-21T05:13:20;97573.30;;;7.29;99.59
56568;BME280;42456;49.956;20.004;2023-11-21T05:15:47;97573.45;;;7.28;99.60
56568;BME280;42456;49.956;20.004;2023-11-21T05:18:14;97580.96;;;7.27;99.63
56568;BME280;42456;49.956;20.004;2023-11-21T05:20:41;97584.34;;;7.25;99.64
56568;BME280;42456;49.956;20.004;2023-11-21T05:23:08;97586.90;;;7.24;99.88
56568;BME280;42456;49.956;20.004;2023-11-21T05:25:35;97586.84;;;7.23;99.88
56568;BME280;42456;49.956;20.004;2023-11-21T05:28:07;97591.89;;;7.21;99.91
56568;BME280;42456;49.956;20.004;2023-11-21T05:30:33;97593.97;;;7.20;99.95
56568;BME280;42456;49.956;20.004;2023-11-21T05:33:00;97593.44;;;7.18;99.97
56568;BME280;42456;49.956;20.004;2023-11-21T05:35:27;97597.35;;;7.16;99.97
56568;BME280;42456;49.956;20.004;2023-11-21T05:37:54;97596.31;;;7.15;100.00
56568;BME280;42456;49.956;20.004;2023-11-21T05:40:21;97602.17;;;7.15;100.00
56568;BME280;42456;49.956;20.004;2023-11-21T05:42:51;97605.64;;;7.15;100.00
56568;BME280;42456;49.956;20.004;2023-11-21T05:45:18;97607.18;;;7.15;100.00
56568;BME280;42456;49.956;20.004;2023-11-21T05:47:46;97612.71;;;7.15;100.00
56568;BME280;42456;49.956;20.004;2023-11-21T05:50:15;97614.07;;;7.14;100.00
56568;BME280;42456;49.956;20.004;2023-11-21T05:52:44;97618.66;;;7.14;100.00
56568;BME280;42456;49.956;20.004;2023-11-21T05:55:12;97621.80;;;7.14;100.00
56568;BME280;42456;49.956;20.004;2023-11-21T05:57:41;97618.52;;;7.15;100.00
56568;BME280;42456;49.956;20.004;2023-11-21T06:00:11;97621.67;;;7.15;100.00
56568;BME280;42456;49.956;20.004;2023-11-21T06:02:40;97623.05;;;7.15;100.00
56568;BME280;42456;49.956;20.004;2023-11-21T06:05:08;97630.83;;;7.16;100.00
56568;BME280;42456;49.956;20.004;2023-11-21T06:07:35;97632.29;;;7.17;100.00
56568;BME280;42456;49.956;20.004;2023-11-21T06:10:03;97632.70;;;7.18;100.00
56568;BME280;42456;49.956;20.004;2023-11-21T06:12:33;97635.72;;;7.19;100.00
56568;BME280;42456;49.956;20.004;2023-11-21T06:15:03;97632.38;;;7.19;100.00
56568;BME280;42456;49.956;20.004;2023-11-21T06:17:36;97633.03;;;7.20;100.00
56568;BME280;42456;49.956;20.004;2023-11-21T06:20:04;97630.70;;;7.21;100.00
56568;BME280;42456;49.956;20.004;2023-11-21T06:22:37;97633.16;;;7.21;100.00
56568;BME280;42456;49.956;20.004;2023-11-21T06:25:05;97637.12;;;7.21;100.00
56568;BME280;42456;49.956;20.004;2023-11-21T06:27:33;97640.48;;;7.21;100.00
56568;BME280;42456;49.956;20.004;2023-11-21T06:30:00;97639.54;;;7.21;100.00
56568;BME280;42456;49.956;20.004;2023-11-21T06:32:28;97639.70;;;7.21;100.00
56568;BME280;42456;49.956;20.004;2023-11-21T06:34:56;97648.53;;;7.22;100.00
56568;BME280;42456;49.956;20.004;2023-11-21T06:37:27;97652.09;;;7.23;100.00
56568;BME280;42456;49.956;20.004;2023-11-21T06:39:54;97654.40;;;7.23;100.00
56568;BME280;42456;49.956;20.004;2023-11-21T06:42:21;97663.04;;;7.23;100.00
56568;BME280;42456;49.956;20.004;2023-11-21T06:44:47;97661.39;;;7.24;100.00
56568;BME280;42456;49.956;20.004;2023-11-21T06:47:15;97663.35;;;7.25;100.00
56568;BME280;42456;49.956;20.004;2023-11-21T06:49:42;97661.38;;;7.28;100.00
56568;BME280;42456;49.956;20.004;2023-11-21T06:52:09;97663.98;;;7.30;100.00
56568;BME280;42456;49.956;20.004;2023-11-21T06:54:36;97660.44;;;7.33;100.00
56568;BME280;42456;49.956;20.004;2023-11-21T06:57:03;97659.74;;;7.36;100.00
56568;BME280;42456;49.956;20.004;2023-11-21T06:59:30;97655.26;;;7.39;100.00
56568;BME280;42456;49.956;20.004;2023-11-21T07:01:57;97659.55;;;7.41;100.00
56568;BME280;42456;49.956;20.004;2023-11-21T07:04:25;97661.77;;;7.43;100.00
56568;BME280;42456;49.956;20.004;2023-11-21T07:06:55;97661.30;;;7.43;100.00
56568;BME280;42456;49.956;20.004;2023-11-21T07:09:21;97667.16;;;7.44;100.00
56568;BME280;42456;49.956;20.004;2023-11-21T07:11:49;97672.61;;;7.45;100.00
56568;BME280;42456;49.956;20.004;2023-11-21T07:14:16;97673.54;;;7.45;100.00
56568;BME280;42456;49.956;20.004;2023-11-21T07:16:43;97677.66;;;7.45;100.00
56568;BME280;42456;49.956;20.004;2023-11-21T07:19:11;97680.84;;;7.46;100.00
56568;BME280;42456;49.956;20.004;2023-11-21T07:21:39;97682.84;;;7.46;100.00
56568;BME280;42456;49.956;20.004;2023-11-21T07:24:08;97682.85;;;7.47;100.00
56568;BME280;42456;49.956;20.004;2023-11-21T07:26:35;97684.67;;;7.46;100.00
56568;BME280;42456;49.956;20.004;2023-11-21T07:29:02;97687.10;;;7.46;100.00
56568;BME280;42456;49.956;20.004;2023-11-21T07:31:30;97689.84;;;7.46;100.00
56568;BME280;42456;49.956;20.004;2023-11-21T07:33:58;97689.27;;;7.47;100.00
56568;BME280;42456;49.956;20.004;2023-11-21T07:36:25;97689.92;;;7.48;100.00
56568;BME280;42456;49.956;20.004;2023-11-21T07:38:52;97695.52;;;7.48;100.00
56568;BME280;42456;49.956;20.004;2023-11-21T07:41:19;97698.23;;;7.49;100.00
56568;BME280;42456;49.956;20.004;2023-11-21T07:43:57;97699.02;;;7.49;100.00
56568;BME280;42456;49.956;20.004;2023-11-21T07:46:26;97695.63;;;7.49;100.00
56568;BME280;42456;49.956;20.004;2023-11-21T07:48:54;97699.99;;;7.49;100.00
56568;BME280;42456;49.956;20.004;2023-11-21T07:51:22;97699.02;;;7.48;100.00
56568;BME280;42456;49.956;20.004;2023-11-21T07:53:49;97698.67;;;7.48;100.00
56568;BME280;42456;49.956;20.004;2023-11-21T07:56:16;97696.27;;;7.48;100.00
56568;BME280;42456;49.956;20.004;2023-11-21T07:58:44;97699.15;;;7.49;100.00
56568;BME280;42456;49.956;20.004;2023-11-21T08:01:12;97700.91;;;7.49;100.00
56568;BME280;42456;49.956;20.004;2023-11-21T08:03:39;97700.52;;;7.49;100.00
56568;BME280;42456;49.956;20.004;2023-11-21T08:06:07;97703.39;;;7.50;100.00
56568;BME280;42456;49.956;20.004;2023-11-21T08:08:34;97703.13;;;7.49;100.00
56568;BME280;42456;49.956;20.004;2023-11-21T08:11:01;97702.89;;;7.49;100.00
56568;BME280;42456;49.956;20.004;2023-11-21T08:13:29;97706.88;;;7.49;100.00
56568;BME280;42456;49.956;20.004;2023-11-21T08:15:58;97711.02;;;7.49;100.00
56568;BME280;42456;49.956;20.004;2023-11-21T08:18:34;97710.76;;;7.49;100.00
56568;BME280;42456;49.956;20.004;2023-11-21T08:21:02;97710.66;;;7.50;100.00
56568;BME280;42456;49.956;20.004;2023-11-21T08:23:30;97710.56;;;7.51;100.00
56568;BME280;42456;49.956;20.004;2023-11-21T08:25:57;97707.84;;;7.54;100.00
56568;BME280;42456;49.956;20.004;2023-11-21T08:28:24;97712.89;;;7.56;100.00
56568;BME280;42456;49.956;20.004;2023-11-21T08:30:53;97710.67;;;7.56;100.00
56568;BME280;42456;49.956;20.004;2023-11-21T08:33:21;97715.33;;;7.56;100.00
56568;BME280;42456;49.956;20.004;2023-11-21T08:35:48;97716.13;;;7.57;100.00
56568;BME280;42456;49.956;20.004;2023-11-21T08:38:16;97721.09;;;7.59;100.00
56568;BME280;42456;49.956;20.004;2023-11-21T08:40:43;97721.73;;;7.59;100.00
56568;BME280;42456;49.956;20.004;2023-11-21T08:43:10;97724.73;;;7.60;100.00
56568;BME280;42456;49.956;20.004;2023-11-21T08:45:38;97728.98;;;7.60;100.00
56568;BME280;42456;49.956;20.004;2023-11-21T08:48:05;97726.70;;;7.61;99.99
56568;BME280;42456;49.956;20.004;2023-11-21T08:50:32;97725.71;;;7.61;100.00
56568;BME280;42456;49.956;20.004;2023-11-21T08:53:00;97724.54;;;7.63;100.00
56568;BME280;42456;49.956;20.004;2023-11-21T08:55:28;97726.30;;;7.64;99.98
56568;BME280;42456;49.956;20.004;2023-11-21T08:57:55;97728.61;;;7.67;100.00
56568;BME280;42456;49.956;20.004;2023-11-21T09:00:24;97727.62;;;7.71;100.00
56568;BME280;42456;49.956;20.004;2023-11-21T09:02:51;97727.69;;;7.75;100.00
56568;BME280;42456;49.956;20.004;2023-11-21T09:05:18;97730.94;;;7.80;100.00
56568;BME280;42456;49.956;20.004;2023-11-21T09:07:47;97732.61;;;7.85;100.00
56568;BME280;42456;49.956;20.004;2023-11-21T09:10:15;97728.64;;;7.90;100.00
56568;BME280;42456;49.956;20.004;2023-11-21T09:12:42;97729.24;;;7.95;100.00
56568;BME280;42456;49.956;20.004;2023-11-21T09:15:10;97730.02;;;8.01;99.98
56568;BME280;42456;49.956;20.004;2023-11-21T09:17:38;97730.30;;;8.07;99.94
56568;BME280;42456;49.956;20.004;2023-11-21T09:20:07;97732.67;;;8.11;100.00
56568;BME280;42456;49.956;20.004;2023-11-21T09:22:37;97734.77;;;8.13;99.99
56568;BME280;42456;49.956;20.004;2023-11-21T09:25:05;97732.15;;;8.15;99.93
56568;BME280;42456;49.956;20.004;2023-11-21T09:27:33;97733.55;;;8.17;99.94
56568;BME280;42456;49.956;20.004;2023-11-21T09:30:00;97730.20;;;8.18;99.74
56568;BME280;42456;49.956;20.004;2023-11-21T09:32:26;97728.77;;;8.19;99.87
56568;BME280;42456;49.956;20.004;2023-11-21T09:34:54;97730.35;;;8.19;99.82
56568;BME280;42456;49.956;20.004;2023-11-21T09:37:24;97729.52;;;8.20;99.53
56568;BME280;42456;49.956;20.004;2023-11-21T09:39:54;97728.95;;;8.23;99.69
56568;BME280;42456;49.956;20.004;2023-11-21T09:42:25;97726.55;;;8.26;99.44
56568;BME280;42456;49.956;20.004;2023-11-21T09:45:09;97726.45;;;8.29;99.71
56568;BME280;42456;49.956;20.004;2023-11-21T09:47:41;97729.22;;;8.30;99.28
56568;BME280;42456;49.956;20.004;2023-11-21T09:50:09;97730.80;;;8.31;99.07
56568;BME280;42456;49.956;20.004;2023-11-21T09:52:55;97732.83;;;8.32;99.17
56568;BME280;42456;49.956;20.004;2023-11-21T09:55:26;97730.19;;;8.31;98.95
56568;BME280;42456;49.956;20.004;2023-11-21T10:01:09;97733.67;;;8.30;98.77
56568;BME280;42456;49.956;20.004;2023-11-21T10:03:37;97733.09;;;8.31;99.02
56568;BME280;42456;49.956;20.004;2023-11-21T10:06:06;97736.11;;;8.32;98.64
56568;BME280;42456;49.956;20.004;2023-11-21T10:08:35;97739.73;;;8.32;98.65
56568;BME280;42456;49.956;20.004;2023-11-21T10:11:17;97744.97;;;8.36;98.36
56568;BME280;42456;49.956;20.004;2023-11-21T10:13:47;97742.56;;;8.38;98.42
56568;BME280;42456;49.956;20.004;2023-11-21T10:16:18;97742.47;;;8.42;98.45
56568;BME280;42456;49.956;20.004;2023-11-21T10:18:52;97745.93;;;8.47;99.03
56568;BME280;42456;49.956;20.004;2023-11-21T10:21:38;97750.39;;;8.49;98.43
56568;BME280;42456;49.956;20.004;2023-11-21T10:24:06;97751.06;;;8.51;98.54
56568;BME280;42456;49.956;20.004;2023-11-21T10:26:34;97748.46;;;8.53;98.28
56568;BME280;42456;49.956;20.004;2023-11-21T10:29:16;97750.65;;;8.54;98.24
56568;BME280;42456;49.956;20.004;2023-11-21T10:31:45;97749.88;;;8.54;97.68
56568;BME280;42456;49.956;20.004;2023-11-21T10:34:16;97747.29;;;8.58;98.05
56568;BME280;42456;49.956;20.004;2023-11-21T10:36:45;97744.55;;;8.65;97.81
56568;BME280;42456;49.956;20.004;2023-11-21T10:39:19;97745.96;;;8.73;97.99
56568;BME280;42456;49.956;20.004;2023-11-21T10:41:48;97743.77;;;8.80;97.85
56568;BME280;42456;49.956;20.004;2023-11-21T10:44:16;97745.09;;;8.82;97.40
56568;BME280;42456;49.956;20.004;2023-11-21T10:46:49;97742.59;;;8.83;97.03
56568;BME280;42456;49.956;20.004;2023-11-21T10:49:18;97743.21;;;8.83;96.72
56568;BME280;42456;49.956;20.004;2023-11-21T10:51:46;97743.48;;;8.85;96.42
56568;BME280;42456;49.956;20.004;2023-11-21T10:54:19;97741.09;;;8.86;96.46
56568;BME280;42456;49.956;20.004;2023-11-21T10:56:53;97740.93;;;8.86;96.42
56568;BME280;42456;49.956;20.004;2023-11-21T10:59:20;97742.52;;;8.85;96.56
56568;BME280;42456;49.956;20.004;2023-11-21T11:01:52;97740.33;;;8.84;96.54
56568;BME280;42456;49.956;20.004;2023-11-21T11:04:20;97741.91;;;8.81;96.11
56568;BME280;42456;49.956;20.004;2023-11-21T11:06:53;97737.81;;;8.78;95.97
56568;BME280;42456;49.956;20.004;2023-11-21T11:09:21;97737.45;;;8.76;95.68
56568;BME280;42456;49.956;20.004;2023-11-21T11:11:48;97737.77;;;8.79;95.72
56568;BME280;42456;49.956;20.004;2023-11-21T11:14:15;97741.89;;;8.81;95.60
56568;BME280;42456;49.956;20.004;2023-11-21T11:16:43;97738.23;;;8.84;95.45
56568;BME280;42456;49.956;20.004;2023-11-21T11:19:10;97738.14;;;8.91;95.59
56568;BME280;42456;49.956;20.004;2023-11-21T11:24:33;97731.41;;;9.05;95.01
56568;BME280;42456;49.956;20.004;2023-11-21T11:27:12;97731.09;;;9.07;94.85
56568;BME280;42456;49.956;20.004;2023-11-21T11:35:33;97734.84;;;9.04;93.78
56568;BME280;42456;49.956;20.004;2023-11-21T11:38:01;97738.48;;;9.03;93.51
56568;BME280;42456;49.956;20.004;2023-11-21T11:40:40;97736.30;;;9.00;93.32
56568;BME280;42456;49.956;20.004;2023-11-21T11:43:08;97737.85;;;8.97;93.09
56568;BME280;42456;49.956;20.004;2023-11-21T11:45:35;97743.59;;;8.94;92.83
56568;BME280;42456;49.956;20.004;2023-11-21T11:48:03;97746.67;;;8.92;93.07
56568;BME280;42456;49.956;20.004;2023-11-21T11:50:31;97751.59;;;8.93;92.96
56568;BME280;42456;49.956;20.004;2023-11-21T11:53:18;97750.92;;;8.96;93.22
56568;BME280;42456;49.956;20.004;2023-11-21T11:55:46;97751.70;;;9.00;93.22
56568;BME280;42456;49.956;20.004;2023-11-21T11:58:14;97751.73;;;9.06;93.29
56568;BME280;42456;49.956;20.004;2023-11-21T12:00:42;97750.41;;;9.09;92.96
56568;BME280;42456;49.956;20.004;2023-11-21T12:03:10;97756.91;;;9.13;92.70
56568;BME280;42456;49.956;20.004;2023-11-21T12:05:37;97758.96;;;9.15;92.67
56568;BME280;42456;49.956;20.004;2023-11-21T12:08:11;97757.20;;;9.17;92.52
56568;BME280;42456;49.956;20.004;2023-11-21T12:10:39;97756.20;;;9.19;92.17
56568;BME280;42456;49.956;20.004;2023-11-21T12:13:08;97754.23;;;9.22;91.99
56568;BME280;42456;49.956;20.004;2023-11-21T12:15:37;97751.92;;;9.24;91.82
56568;BME280;42456;49.956;20.004;2023-11-21T12:18:07;97752.35;;;9.26;92.01
56568;BME280;42456;49.956;20.004;2023-11-21T12:20:34;97751.23;;;9.28;91.94
56568;BME280;42456;49.956;20.004;2023-11-21T12:23:08;97749.66;;;9.32;91.94
56568;BME280;42456;49.956;20.004;2023-11-21T12:25:41;97745.31;;;9.36;91.77
56568;BME280;42456;49.956;20.004;2023-11-21T12:28:09;97750.13;;;9.41;91.81
56568;BME280;42456;49.956;20.004;2023-11-21T12:30:36;97749.21;;;9.46;91.90
56568;BME280;42456;49.956;20.004;2023-11-21T12:33:05;97748.91;;;9.51;91.15
56568;BME280;42456;49.956;20.004;2023-11-21T12:35:36;97749.50;;;9.55;90.93
56568;BME280;42456;49.956;20.004;2023-11-21T12:38:05;97747.48;;;9.59;90.68
56568;BME280;42456;49.956;20.004;2023-11-21T12:40:33;97748.63;;;9.64;90.46
56568;BME280;42456;49.956;20.004;2023-11-21T12:43:00;97751.55;;;9.71;90.69
56568;BME280;42456;49.956;20.004;2023-11-21T12:45:30;97751.51;;;9.77;90.42
56568;BME280;42456;49.956;20.004;2023-11-21T12:48:03;97754.99;;;9.78;89.80
56568;BME280;42456;49.956;20.004;2023-11-21T12:50:35;97751.02;;;9.78;89.28
56568;BME280;42456;49.956;20.004;2023-11-21T12:53:06;97750.30;;;9.77;89.12
56568;BME280;42456;49.956;20.004;2023-11-21T12:55:36;97747.25;;;9.76;88.98
56568;BME280;42456;49.956;20.004;2023-11-21T12:58:09;97748.27;;;9.73;88.71
56568;BME280;42456;49.956;20.004;2023-11-21T13:00:45;97751.97;;;9.67;88.37
56568;BME280;42456;49.956;20.004;2023-11-21T13:03:14;97755.80;;;9.61;88.15
56568;BME280;42456;49.956;20.004;2023-11-21T13:05:47;97756.00;;;9.54;88.19
56568;BME280;42456;49.956;20.004;2023-11-21T13:08:20;97759.98;;;9.47;87.98
56568;BME280;42456;49.956;20.004;2023-11-21T13:10:54;97757.71;;;9.39;87.95
56568;BME280;42456;49.956;20.004;2023-11-21T13:13:25;97759.28;;;9.31;87.80